Montevideo, Uruguay

12:11 PM UYT en Julio 26, 2014 (GMT -0300)
Carrasco International-Gen C L Berisso (SUMU) Alt 105 ft | 34.83 °S, 56.01 °W | Change Station

Current weather conditions updated 1 hour ago

Scattered Clouds
Nubes dispersas
46 ° F
Sensación térmica 40 ° F
N
16
Viento Variable Viento desde OSO

Hoy se prevé un día Mucho más frío que ayer.

Hoy
Alta -- | Baja -- ° F
--% Posibilidad de precipitaciones
Ayer
Alta -- | Baja -- ° F
Precip. -- pul
7:42 AM 5:58 PM
Creciente menguante, 0% visible
Presión 30.24 pul
Visibilidad 6.2 Millas
Nubes Nubes dispersas 3000 ft
Vientos helados 40 ° F
Punto de rocío 27 ° F
Humedad 46%
Precipitaciones 0.00 pul
Espesor de la nieve No disponible.
UV 3 de una escala de 12
Polen No disponible.
Calidad del aire No disponible.
Flu Activity No disponible.
METAR SUMU 261400Z 24014KT 9999 SCT030 08/M03 Q1024 NOSIG

More Conditions Fewer Conditions

Presión 30.24 pul
Visibilidad 6.2 Millas
Nubes Nubes dispersas 3000 ft
Vientos helados 40 ° F
Punto de rocío 27 ° F
Humedad 46%
Precipitaciones 0.00 pul
Espesor de la nieve No disponible.
UV 3 de una escala de 12
Polen No disponible.
Calidad del aire No disponible.
Flu Activity No disponible.
METAR SUMU 261400Z 24014KT 9999 SCT030 08/M03 Q1024 NOSIG

More Conditions Fewer Conditions

10-Day Weather Forecast

Almanac

Astronomía

Jul. 26, 2014 Salida Puesta
Hora real 7:42 AM UYT 5:58 PM UYT
Crepúsculo civil 7:15 AM UYT 6:25 PM UYT
Crepúsculo náutico 6:45 AM UYT 6:56 PM UYT
Crepúsculo astronómico 6:15 AM UYT 7:26 PM UYT
Luna 7:08 AM UYT 6:00 PM UYT
Horas de luz 11h 09m
Horas de luz
10h 15m
Tomorrow will be 1m 26s longer.
Creciente menguante, 0% of the Moon is Illuminated
Hoy
Creciente menguante
Jul 26
Nueva
Ago 3
Cuarto creciente
Ago 10
Luna llena
Ago 17
Cuarto menguante

Extremos de hoy

Máximos del país Bajas del país

Community

WunderPhotos

Upload Photos

1,737,608 ¡fotos cargadas!

Nearby

Calidad del aire

Not available.

Grosos de nieve

Not available.

Actividad de terremotos

Ciudad Distance Mag. Tiempo y dato
No hay informes recientes de la actividad sísmica.
Magnitud mínima muestra es 2,5.

Temperaturas de aguas costeras

Lugar Temperatura
Sin partes meteorológicos de las estaciones

Estaciones meteorológicas cercanas

Ubicación de la estación Temp. Vientos helados Punto de rocío Humedad Viento Precip. Alt Actualizado Tipo
Buceo, Montevideo 49.3 ° F 48 ° F 32 ° F 51% OSO  a  3.8 mph 0.00 pul / hr 98 ft 12:11 PM UYT Rapid Fire

Show More Stations Show Fewer Stations